sensor_id;sensor_type;location;lat;lon;timestamp;temperature;humidity
14014;DHT22;49110;52.584;13.408;2023-10-09T00:00:25;13.70;95.90
14014;DHT22;49110;52.584;13.408;2023-10-09T00:01:41;13.70;96.10
14014;DHT22;49110;52.584;13.408;2023-10-09T00:02:44;13.70;96.30
14014;DHT22;49110;52.584;13.408;2023-10-09T00:03:44;13.70;96.40
14014;DHT22;49110;52.584;13.408;2023-10-09T00:04:46;13.60;96.60
14014;DHT22;49110;52.584;13.408;2023-10-09T00:05:46;13.70;96.70
14014;DHT22;49110;52.584;13.408;2023-10-09T00:06:47;13.60;96.70
14014;DHT22;49110;52.584;13.408;2023-10-09T00:07:48;13.60;97.00
14014;DHT22;49110;52.584;13.408;2023-10-09T00:08:48;13.60;97.20
14014;DHT22;49110;52.584;13.408;2023-10-09T00:09:53;13.60;97.30
14014;DHT22;49110;52.584;13.408;2023-10-09T00:10:56;13.60;97.40
14014;DHT22;49110;52.584;13.408;2023-10-09T00:11:57;13.60;97.50
14014;DHT22;49110;52.584;13.408;2023-10-09T00:12:59;13.60;97.60
14014;DHT22;49110;52.584;13.408;2023-10-09T00:13:59;13.60;97.70
14014;DHT22;49110;52.584;13.408;2023-10-09T00:15:00;13.60;97.80
14014;DHT22;49110;52.584;13.408;2023-10-09T00:16:11;13.60;98.00
14014;DHT22;49110;52.584;13.408;2023-10-09T00:17:15;13.60;98.20
14014;DHT22;49110;52.584;13.408;2023-10-09T00:18:16;13.60;98.40
14014;DHT22;49110;52.584;13.408;2023-10-09T00:19:22;13.60;98.40
14014;DHT22;49110;52.584;13.408;2023-10-09T00:20:36;13.60;98.50
14014;DHT22;49110;52.584;13.408;2023-10-09T00:21:41;13.60;98.60
14014;DHT22;49110;52.584;13.408;2023-10-09T00:22:41;13.60;98.70
14014;DHT22;49110;52.584;13.408;2023-10-09T00:23:43;13.60;98.90
14014;DHT22;49110;52.584;13.408;2023-10-09T00:24:44;13.60;99.00
14014;DHT22;49110;52.584;13.408;2023-10-09T00:25:49;13.60;99.00
14014;DHT22;49110;52.584;13.408;2023-10-09T00:27:08;13.60;99.10
14014;DHT22;49110;52.584;13.408;2023-10-09T00:28:12;13.60;99.30
14014;DHT22;49110;52.584;13.408;2023-10-09T00:29:14;13.50;99.30
14014;DHT22;49110;52.584;13.408;2023-10-09T00:30:24;13.50;99.40
14014;DHT22;49110;52.584;13.408;2023-10-09T00:31:30;13.40;99.50
14014;DHT22;49110;52.584;13.408;2023-10-09T00:32:33;13.50;99.60
14014;DHT22;49110;52.584;13.408;2023-10-09T00:33:37;13.50;99.80
14014;DHT22;49110;52.584;13.408;2023-10-09T00:34:37;13.50;99.90
14014;DHT22;49110;52.584;13.408;2023-10-09T00:35:39;13.50;99.90
14014;DHT22;49110;52.584;13.408;2023-10-09T00:36:54;13.50;99.90
14014;DHT22;49110;52.584;13.408;2023-10-09T00:37:58;13.50;99.90
14014;DHT22;49110;52.584;13.408;2023-10-09T00:39:06;13.50;99.90
14014;DHT22;49110;52.584;13.408;2023-10-09T00:40:20;13.50;99.90
14014;DHT22;49110;52.584;13.408;2023-10-09T00:41:20;13.50;99.90
14014;DHT22;49110;52.584;13.408;2023-10-09T00:42:25;13.50;99.90
14014;DHT22;49110;52.584;13.408;2023-10-09T00:43:34;13.50;99.90
14014;DHT22;49110;52.584;13.408;2023-10-09T00:44:37;13.50;99.90
14014;DHT22;49110;52.584;13.408;2023-10-09T00:45:43;13.50;99.90
14014;DHT22;49110;52.584;13.408;2023-10-09T00:46:45;13.40;99.90
14014;DHT22;49110;52.584;13.408;2023-10-09T00:47:47;13.40;99.90
14014;DHT22;49110;52.584;13.408;2023-10-09T00:48:56;13.40;99.90
14014;DHT22;49110;52.584;13.408;2023-10-09T00:49:59;13.40;99.90
14014;DHT22;49110;52.584;13.408;2023-10-09T00:51:01;13.40;99.90
14014;DHT22;49110;52.584;13.408;2023-10-09T00:52:01;13.40;99.90
14014;DHT22;49110;52.584;13.408;2023-10-09T00:53:03;13.40;99.90
14014;DHT22;49110;52.584;13.408;2023-10-09T00:54:12;13.40;99.90
14014;DHT22;49110;52.584;13.408;2023-10-09T00:55:17;13.40;99.90
14014;DHT22;49110;52.584;13.408;2023-10-09T00:56:28;13.30;99.90
14014;DHT22;49110;52.584;13.408;2023-10-09T00:57:29;13.30;99.90
14014;DHT22;49110;52.584;13.408;2023-10-09T00:58:32;13.20;99.90
14014;DHT22;49110;52.584;13.408;2023-10-09T00:59:36;13.10;99.90
14014;DHT22;49110;52.584;13.408;2023-10-09T01:00:42;13.10;99.90
14014;DHT22;49110;52.584;13.408;2023-10-09T01:01:47;13.10;99.90
14014;DHT22;49110;52.584;13.408;2023-10-09T01:02:57;13.10;99.90
14014;DHT22;49110;52.584;13.408;2023-10-09T01:04:11;13.10;99.90
14014;DHT22;49110;52.584;13.408;2023-10-09T01:05:15;13.10;99.90
14014;DHT22;49110;52.584;13.408;2023-10-09T01:06:20;13.10;99.90
14014;DHT22;49110;52.584;13.408;2023-10-09T01:07:28;13.10;99.90
14014;DHT22;49110;52.584;13.408;2023-10-09T01:08:32;13.10;99.90
14014;DHT22;49110;52.584;13.408;2023-10-09T01:09:42;13.00;99.90
14014;DHT22;49110;52.584;13.408;2023-10-09T01:10:46;13.10;99.90
14014;DHT22;49110;52.584;13.408;2023-10-09T01:12:05;13.00;99.90
14014;DHT22;49110;52.584;13.408;2023-10-09T01:13:06;13.00;99.90
14014;DHT22;49110;52.584;13.408;2023-10-09T01:14:10;12.90;99.90
14014;DHT22;49110;52.584;13.408;2023-10-09T01:15:11;12.90;99.90
14014;DHT22;49110;52.584;13.408;2023-10-09T01:16:36;12.90;99.90
14014;DHT22;49110;52.584;13.408;2023-10-09T01:17:37;13.00;99.90
14014;DHT22;49110;52.584;13.408;2023-10-09T01:18:38;13.00;99.90
14014;DHT22;49110;52.584;13.408;2023-10-09T01:19:44;13.10;99.90
14014;DHT22;49110;52.584;13.408;2023-10-09T01:20:44;13.00;99.90
14014;DHT22;49110;52.584;13.408;2023-10-09T01:21:46;13.10;99.90
14014;DHT22;49110;52.584;13.408;2023-10-09T01:22:47;13.10;99.90
14014;DHT22;49110;52.584;13.408;2023-10-09T01:23:51;13.10;99.90
14014;DHT22;49110;52.584;13.408;2023-10-09T01:25:03;13.10;99.90
14014;DHT22;49110;52.584;13.408;2023-10-09T01:26:06;13.10;99.90
14014;DHT22;49110;52.584;13.408;2023-10-09T01:27:07;13.10;99.90
14014;DHT22;49110;52.584;13.408;2023-10-09T01:28:16;13.10;99.90
14014;DHT22;49110;52.584;13.408;2023-10-09T01:29:20;13.00;99.90
14014;DHT22;49110;52.584;13.408;2023-10-09T01:30:29;13.00;99.90
14014;DHT22;49110;52.584;13.408;2023-10-09T01:31:31;12.90;99.90
14014;DHT22;49110;52.584;13.408;2023-10-09T01:32:34;12.90;99.90
14014;DHT22;49110;52.584;13.408;2023-10-09T01:33:35;12.90;99.90
14014;DHT22;49110;52.584;13.408;2023-10-09T01:34:37;12.90;99.90
14014;DHT22;49110;52.584;13.408;2023-10-09T01:35:50;12.80;99.90
14014;DHT22;49110;52.584;13.408;2023-10-09T01:36:55;12.80;99.90
14014;DHT22;49110;52.584;13.408;2023-10-09T01:37:56;12.80;99.90
14014;DHT22;49110;52.584;13.408;2023-10-09T01:38:59;12.70;99.90
14014;DHT22;49110;52.584;13.408;2023-10-09T01:40:00;12.70;99.90
14014;DHT22;49110;52.584;13.408;2023-10-09T01:41:26;12.70;99.90
14014;DHT22;49110;52.584;13.408;2023-10-09T01:42:27;12.60;99.90
14014;DHT22;49110;52.584;13.408;2023-10-09T01:43:30;12.70;99.90
14014;DHT22;49110;52.584;13.408;2023-10-09T01:44:34;12.60;99.90
14014;DHT22;49110;52.584;13.408;2023-10-09T01:45:38;12.60;99.90
14014;DHT22;49110;52.584;13.408;2023-10-09T01:46:46;12.60;99.90
14014;DHT22;49110;52.584;13.408;2023-10-09T01:47:47;12.60;99.90
14014;DHT22;49110;52.584;13.408;2023-10-09T01:48:54;12.70;99.90
14014;DHT22;49110;52.584;13.408;2023-10-09T01:49:55;12.70;99.90
14014;DHT22;49110;52.584;13.408;2023-10-09T01:50:58;12.70;99.90
14014;DHT22;49110;52.584;13.408;2023-10-09T01:52:00;12.60;99.90
14014;DHT22;49110;52.584;13.408;2023-10-09T01:53:08;12.60;99.90
14014;DHT22;49110;52.584;13.408;2023-10-09T01:54:08;12.60;99.90
14014;DHT22;49110;52.584;13.408;2023-10-09T01:55:16;12.60;99.90
14014;DHT22;49110;52.584;13.408;2023-10-09T01:56:28;12.50;99.90
14014;DHT22;49110;52.584;13.408;2023-10-09T01:57:28;12.50;99.90
14014;DHT22;49110;52.584;13.408;2023-10-09T01:58:30;12.60;99.90
14014;DHT22;49110;52.584;13.408;2023-10-09T01:59:32;12.60;99.90
14014;DHT22;49110;52.584;13.408;2023-10-09T02:00:33;12.60;99.90
14014;DHT22;49110;52.584;13.408;2023-10-09T02:01:42;12.60;99.90
14014;DHT22;49110;52.584;13.408;2023-10-09T02:02:48;12.60;99.90
14014;DHT22;49110;52.584;13.408;2023-10-09T02:03:48;12.50;99.90
14014;DHT22;49110;52.584;13.408;2023-10-09T02:04:53;12.60;99.90
14014;DHT22;49110;52.584;13.408;2023-10-09T02:05:54;12.60;99.90
14014;DHT22;49110;52.584;13.408;2023-10-09T02:07:15;12.50;99.90
14014;DHT22;49110;52.584;13.408;2023-10-09T02:08:15;12.60;99.90
14014;DHT22;49110;52.584;13.408;2023-10-09T02:09:22;12.60;99.90
14014;DHT22;49110;52.584;13.408;2023-10-09T02:10:30;12.60;99.90
14014;DHT22;49110;52.584;13.408;2023-10-09T02:11:30;12.60;99.90
14014;DHT22;49110;52.584;13.408;2023-10-09T02:12:45;12.70;99.90
14014;DHT22;49110;52.584;13.408;2023-10-09T02:13:47;12.60;99.90
14014;DHT22;49110;52.584;13.408;2023-10-09T02:14:54;12.60;99.90
14014;DHT22;49110;52.584;13.408;2023-10-09T02:15:56;12.60;99.90
14014;DHT22;49110;52.584;13.408;2023-10-09T02:17:13;12.70;99.90
14014;DHT22;49110;52.584;13.408;2023-10-09T02:18:21;12.70;99.90
14014;DHT22;49110;52.584;13.408;2023-10-09T02:19:21;12.70;99.90
14014;DHT22;49110;52.584;13.408;2023-10-09T02:20:40;12.80;99.90
14014;DHT22;49110;52.584;13.408;2023-10-09T02:21:41;12.80;99.90
14014;DHT22;49110;52.584;13.408;2023-10-09T02:22:42;12.90;99.90
14014;DHT22;49110;52.584;13.408;2023-10-09T02:23:42;12.90;99.90
14014;DHT22;49110;52.584;13.408;2023-10-09T02:24:45;13.00;99.90
14014;DHT22;49110;52.584;13.408;2023-10-09T02:25:48;13.00;99.90
14014;DHT22;49110;52.584;13.408;2023-10-09T02:26:53;13.00;99.90
14014;DHT22;49110;52.584;13.408;2023-10-09T02:27:54;13.00;99.90
14014;DHT22;49110;52.584;13.408;2023-10-09T02:28:57;13.00;99.90
14014;DHT22;49110;52.584;13.408;2023-10-09T02:30:08;13.00;99.90
14014;DHT22;49110;52.584;13.408;2023-10-09T02:31:15;13.00;99.90
14014;DHT22;49110;52.584;13.408;2023-10-09T02:32:16;13.10;99.90
14014;DHT22;49110;52.584;13.408;2023-10-09T02:33:26;13.10;99.90
14014;DHT22;49110;52.584;13.408;2023-10-09T02:34:29;13.10;99.90
14014;DHT22;49110;52.584;13.408;2023-10-09T02:35:30;13.10;99.90
14014;DHT22;49110;52.584;13.408;2023-10-09T02:36:42;13.10;99.90
14014;DHT22;49110;52.584;13.408;2023-10-09T02:37:49;13.20;99.90
14014;DHT22;49110;52.584;13.408;2023-10-09T02:38:50;13.20;99.90
14014;DHT22;49110;52.584;13.408;2023-10-09T02:39:53;13.20;99.90
14014;DHT22;49110;52.584;13.408;2023-10-09T02:40:55;13.20;99.90
14014;DHT22;49110;52.584;13.408;2023-10-09T02:42:04;13.20;99.90
14014;DHT22;49110;52.584;13.408;2023-10-09T02:43:19;13.20;99.90
14014;DHT22;49110;52.584;13.408;2023-10-09T02:44:20;13.20;99.90
14014;DHT22;49110;52.584;13.408;2023-10-09T02:45:24;13.20;99.90
14014;DHT22;49110;52.584;13.408;2023-10-09T02:46:26;13.20;99.90
14014;DHT22;49110;52.584;13.408;2023-10-09T02:47:29;13.20;99.90
14014;DHT22;49110;52.584;13.408;2023-10-09T02:48:31;13.20;99.90
14014;DHT22;49110;52.584;13.408;2023-10-09T02:49:36;13.20;99.90
14014;DHT22;49110;52.584;13.408;2023-10-09T02:50:38;13.20;99.90
14014;DHT22;49110;52.584;13.408;2023-10-09T02:51:39;13.00;99.90
14014;DHT22;49110;52.584;13.408;2023-10-09T02:52:43;13.00;99.90
14014;DHT22;49110;52.584;13.408;2023-10-09T02:53:43;13.00;99.90
14014;DHT22;49110;52.584;13.408;2023-10-09T02:54:47;12.90;99.90
14014;DHT22;49110;52.584;13.408;2023-10-09T02:55:48;12.80;99.90
14014;DHT22;49110;52.584;13.408;2023-10-09T02:57:03;12.80;99.90
14014;DHT22;49110;52.584;13.408;2023-10-09T02:58:08;12.70;99.90
14014;DHT22;49110;52.584;13.408;2023-10-09T02:59:14;12.70;99.90
14014;DHT22;49110;52.584;13.408;2023-10-09T03:00:15;12.70;99.90
14014;DHT22;49110;52.584;13.408;2023-10-09T03:01:29;12.80;99.90
14014;DHT22;49110;52.584;13.408;2023-10-09T03:02:30;12.60;99.90
14014;DHT22;49110;52.584;13.408;2023-10-09T03:03:32;12.60;99.90
14014;DHT22;49110;52.584;13.408;2023-10-09T03:04:35;12.60;99.90
14014;DHT22;49110;52.584;13.408;2023-10-09T03:05:38;12.60;99.90
14014;DHT22;49110;52.584;13.408;2023-10-09T03:06:42;12.70;99.90
14014;DHT22;49110;52.584;13.408;2023-10-09T03:07:51;12.70;99.90
14014;DHT22;49110;52.584;13.408;2023-10-09T03:08:53;12.70;99.90
14014;DHT22;49110;52.584;13.408;2023-10-09T03:09:55;12.80;99.90
14014;DHT22;49110;52.584;13.408;2023-10-09T03:10:55;12.80;99.90
14014;DHT22;49110;52.584;13.408;2023-10-09T03:12:01;12.80;99.90
14014;DHT22;49110;52.584;13.408;2023-10-09T03:13:02;12.90;99.90
14014;DHT22;49110;52.584;13.408;2023-10-09T03:14:06;12.90;99.90
14014;DHT22;49110;52.584;13.408;2023-10-09T03:15:07;12.90;99.90
14014;DHT22;49110;52.584;13.408;2023-10-09T03:16:09;12.90;99.90
14014;DHT22;49110;52.584;13.408;2023-10-09T03:17:14;12.90;99.90
14014;DHT22;49110;52.584;13.408;2023-10-09T03:18:15;12.90;99.90
14014;DHT22;49110;52.584;13.408;2023-10-09T03:19:15;12.90;99.90
14014;DHT22;49110;52.584;13.408;2023-10-09T03:20:16;12.90;99.90
14014;DHT22;49110;52.584;13.408;2023-10-09T03:21:20;12.80;99.90
14014;DHT22;49110;52.584;13.408;2023-10-09T03:22:21;12.80;99.90
14014;DHT22;49110;52.584;13.408;2023-10-09T03:23:21;12.90;99.90
14014;DHT22;49110;52.584;13.408;2023-10-09T03:24:22;12.80;99.90
14014;DHT22;49110;52.584;13.408;2023-10-09T03:25:23;12.80;99.90
14014;DHT22;49110;52.584;13.408;2023-10-09T03:26:25;12.80;99.90
14014;DHT22;49110;52.584;13.408;2023-10-09T03:27:25;12.80;99.90
14014;DHT22;49110;52.584;13.408;2023-10-09T03:28:26;12.70;99.90
14014;DHT22;49110;52.584;13.408;2023-10-09T03:29:27;12.80;99.90
14014;DHT22;49110;52.584;13.408;2023-10-09T03:30:30;12.80;99.90
14014;DHT22;49110;52.584;13.408;2023-10-09T03:31:33;12.70;99.90
14014;DHT22;49110;52.584;13.408;2023-10-09T03:32:34;12.70;99.90
14014;DHT22;49110;52.584;13.408;2023-10-09T03:33:34;12.60;99.90
14014;DHT22;49110;52.584;13.408;2023-10-09T03:34:36;12.60;99.90
14014;DHT22;49110;52.584;13.408;2023-10-09T03:35:36;12.60;99.90
14014;DHT22;49110;52.584;13.408;2023-10-09T03:36:38;12.60;99.90
14014;DHT22;49110;52.584;13.408;2023-10-09T03:37:39;12.70;99.90
14014;DHT22;49110;52.584;13.408;2023-10-09T03:38:39;12.70;99.90
14014;DHT22;49110;52.584;13.408;2023-10-09T03:39:40;12.70;99.90
14014;DHT22;49110;52.584;13.408;2023-10-09T03:40:47;12.70;99.90
14014;DHT22;49110;52.584;13.408;2023-10-09T03:41:48;12.70;99.90
14014;DHT22;49110;52.584;13.408;2023-10-09T03:42:50;12.60;99.90
14014;DHT22;49110;52.584;13.408;2023-10-09T03:43:51;12.60;99.90
14014;DHT22;49110;52.584;13.408;2023-10-09T03:44:51;12.60;99.90
14014;DHT22;49110;52.584;13.408;2023-10-09T03:45:57;12.50;99.90
14014;DHT22;49110;52.584;13.408;2023-10-09T03:46:59;12.50;99.90
14014;DHT22;49110;52.584;13.408;2023-10-09T03:48:00;12.50;99.90
14014;DHT22;49110;52.584;13.408;2023-10-09T03:49:12;12.50;99.90
14014;DHT22;49110;52.584;13.408;2023-10-09T03:50:14;12.60;99.90
14014;DHT22;49110;52.584;13.408;2023-10-09T03:51:33;12.60;99.90
14014;DHT22;49110;52.584;13.408;2023-10-09T03:52:33;12.60;99.90
14014;DHT22;49110;52.584;13.408;2023-10-09T03:53:36;12.60;99.90
14014;DHT22;49110;52.584;13.408;2023-10-09T03:54:36;12.70;99.90
14014;DHT22;49110;52.584;13.408;2023-10-09T03:55:39;12.70;99.90
14014;DHT22;49110;52.584;13.408;2023-10-09T03:56:40;12.70;99.90
14014;DHT22;49110;52.584;13.408;2023-10-09T03:57:40;12.60;99.90
14014;DHT22;49110;52.584;13.408;2023-10-09T03:58:42;12.60;99.90
14014;DHT22;49110;52.584;13.408;2023-10-09T03:59:44;12.50;99.90
14014;DHT22;49110;52.584;13.408;2023-10-09T04:00:44;12.50;99.90
14014;DHT22;49110;52.584;13.408;2023-10-09T04:01:49;12.50;99.90
14014;DHT22;49110;52.584;13.408;2023-10-09T04:02:56;12.50;99.90
14014;DHT22;49110;52.584;13.408;2023-10-09T04:03:59;12.40;99.90
14014;DHT22;49110;52.584;13.408;2023-10-09T04:05:04;12.40;99.90
14014;DHT22;49110;52.584;13.408;2023-10-09T04:06:07;12.40;99.90
14014;DHT22;49110;52.584;13.408;2023-10-09T04:07:10;12.40;99.90
14014;DHT22;49110;52.584;13.408;2023-10-09T04:08:12;12.40;99.90
14014;DHT22;49110;52.584;13.408;2023-10-09T04:09:29;12.40;99.90
14014;DHT22;49110;52.584;13.408;2023-10-09T04:10:39;12.30;99.90
14014;DHT22;49110;52.584;13.408;2023-10-09T04:11:53;12.30;99.90
14014;DHT22;49110;52.584;13.408;2023-10-09T04:13:12;12.30;99.90
14014;DHT22;49110;52.584;13.408;2023-10-09T04:14:17;12.30;99.90
14014;DHT22;49110;52.584;13.408;2023-10-09T04:15:33;12.30;99.90
14014;DHT22;49110;52.584;13.408;2023-10-09T04:16:36;12.20;99.90
14014;DHT22;49110;52.584;13.408;2023-10-09T04:17:51;12.20;99.90
14014;DHT22;49110;52.584;13.408;2023-10-09T04:18:52;12.20;99.90
14014;DHT22;49110;52.584;13.408;2023-10-09T04:19:52;12.20;99.90
14014;DHT22;49110;52.584;13.408;2023-10-09T04:21:11;12.30;99.90
14014;DHT22;49110;52.584;13.408;2023-10-09T04:22:34;12.30;99.90
14014;DHT22;49110;52.584;13.408;2023-10-09T04:23:39;12.40;99.90
14014;DHT22;49110;52.584;13.408;2023-10-09T04:24:58;12.50;99.90
14014;DHT22;49110;52.584;13.408;2023-10-09T04:25:59;12.50;99.90
14014;DHT22;49110;52.584;13.408;2023-10-09T04:27:00;12.50;99.90
14014;DHT22;49110;52.584;13.408;2023-10-09T04:28:03;12.50;99.90
14014;DHT22;49110;52.584;13.408;2023-10-09T04:29:10;12.50;99.90
14014;DHT22;49110;52.584;13.408;2023-10-09T04:30:19;12.50;99.90
14014;DHT22;49110;52.584;13.408;2023-10-09T04:31:20;12.50;99.90
14014;DHT22;49110;52.584;13.408;2023-10-09T04:32:22;12.50;99.90
14014;DHT22;49110;52.584;13.408;2023-10-09T04:33:25;12.50;99.90
14014;DHT22;49110;52.584;13.408;2023-10-09T04:34:29;12.40;99.90
14014;DHT22;49110;52.584;13.408;2023-10-09T04:35:35;12.40;99.90
14014;DHT22;49110;52.584;13.408;2023-10-09T04:36:38;12.40;99.90
14014;DHT22;49110;52.584;13.408;2023-10-09T04:37:47;12.50;99.90
14014;DHT22;49110;52.584;13.408;2023-10-09T04:38:53;12.60;99.90
14014;DHT22;49110;52.584;13.408;2023-10-09T04:40:16;12.60;99.90
14014;DHT22;49110;52.584;13.408;2023-10-09T04:41:36;12.60;99.90
14014;DHT22;49110;52.584;13.408;2023-10-09T04:42:43;12.50;99.90
14014;DHT22;49110;52.584;13.408;2023-10-09T04:43:58;12.40;99.90
14014;DHT22;49110;52.584;13.408;2023-10-09T04:45:17;12.40;99.90
14014;DHT22;49110;52.584;13.408;2023-10-09T04:46:20;12.40;99.90
14014;DHT22;49110;52.584;13.408;2023-10-09T04:47:23;12.40;99.90
14014;DHT22;49110;52.584;13.408;2023-10-09T04:48:26;12.30;99.90
14014;DHT22;49110;52.584;13.408;2023-10-09T04:49:39;12.20;99.90
14014;DHT22;49110;52.584;13.408;2023-10-09T04:50:49;12.20;99.90
14014;DHT22;49110;52.584;13.408;2023-10-09T04:52:08;12.20;99.90
14014;DHT22;49110;52.584;13.408;2023-10-09T04:53:18;12.30;99.90
14014;DHT22;49110;52.584;13.408;2023-10-09T04:54:19;12.20;99.90
14014;DHT22;49110;52.584;13.408;2023-10-09T04:55:39;12.20;99.90
14014;DHT22;49110;52.584;13.408;2023-10-09T04:56:44;12.20;99.90
14014;DHT22;49110;52.584;13.408;2023-10-09T04:57:54;12.20;99.90
14014;DHT22;49110;52.584;13.408;2023-10-09T04:59:09;12.30;99.90
14014;DHT22;49110;52.584;13.408;2023-10-09T05:00:12;12.20;99.90
14014;DHT22;49110;52.584;13.408;2023-10-09T05:01:25;12.30;99.90
14014;DHT22;49110;52.584;13.408;2023-10-09T05:02:36;12.30;99.90
14014;DHT22;49110;52.584;13.408;2023-10-09T05:03:37;12.30;99.90
14014;DHT22;49110;52.584;13.408;2023-10-09T05:04:40;12.30;99.90
14014;DHT22;49110;52.584;13.408;2023-10-09T05:05:42;12.40;99.90
14014;DHT22;49110;52.584;13.408;2023-10-09T05:06:42;12.30;99.90
14014;DHT22;49110;52.584;13.408;2023-10-09T05:07:42;12.30;99.90
14014;DHT22;49110;52.584;13.408;2023-10-09T05:08:55;12.30;99.90
14014;DHT22;49110;52.584;13.408;2023-10-09T05:09:55;12.30;99.90
14014;DHT22;49110;52.584;13.408;2023-10-09T05:10:58;12.20;99.90
14014;DHT22;49110;52.584;13.408;2023-10-09T05:11:59;12.20;99.90
14014;DHT22;49110;52.584;13.408;2023-10-09T05:13:10;12.20;99.90
14014;DHT22;49110;52.584;13.408;2023-10-09T05:14:14;12.20;99.90
14014;DHT22;49110;52.584;13.408;2023-10-09T05:15:14;12.30;99.90
14014;DHT22;49110;52.584;13.408;2023-10-09T05:16:17;12.30;99.90
14014;DHT22;49110;52.584;13.408;2023-10-09T05:17:28;12.20;99.90
14014;DHT22;49110;52.584;13.408;2023-10-09T05:18:29;12.20;99.90
14014;DHT22;49110;52.584;13.408;2023-10-09T05:19:36;12.30;99.90
14014;DHT22;49110;52.584;13.408;2023-10-09T05:20:54;12.40;99.90
14014;DHT22;49110;52.584;13.408;2023-10-09T05:22:18;12.30;99.90
14014;DHT22;49110;52.584;13.408;2023-10-09T05:23:36;12.30;99.90
14014;DHT22;49110;52.584;13.408;2023-10-09T05:24:44;12.30;99.90
14014;DHT22;49110;52.584;13.408;2023-10-09T05:25:48;12.20;99.90
14014;DHT22;49110;52.584;13.408;2023-10-09T05:26:55;12.30;99.90
14014;DHT22;49110;52.584;13.408;2023-10-09T05:28:16;12.30;99.90
14014;DHT22;49110;52.584;13.408;2023-10-09T05:29:26;12.30;99.90
14014;DHT22;49110;52.584;13.408;2023-10-09T05:30:32;12.30;99.90
14014;DHT22;49110;52.584;13.408;2023-10-09T05:31:34;12.30;99.90
14014;DHT22;49110;52.584;13.408;2023-10-09T05:32:54;12.30;99.90
14014;DHT22;49110;52.584;13.408;2023-10-09T05:34:20;12.30;99.90
14014;DHT22;49110;52.584;13.408;2023-10-09T05:35:22;12.40;99.90
14014;DHT22;49110;52.584;13.408;2023-10-09T05:36:39;12.50;99.90
14014;DHT22;49110;52.584;13.408;2023-10-09T05:37:47;12.50;99.90
14014;DHT22;49110;52.584;13.408;2023-10-09T05:38:55;12.40;99.90
14014;DHT22;49110;52.584;13.408;2023-10-09T05:40:00;12.40;99.90
14014;DHT22;49110;52.584;13.408;2023-10-09T05:41:02;12.30;99.90
14014;DHT22;49110;52.584;13.408;2023-10-09T05:42:23;12.30;99.90
14014;DHT22;49110;52.584;13.408;2023-10-09T05:43:28;12.40;99.90
14014;DHT22;49110;52.584;13.408;2023-10-09T05:44:48;12.30;99.90
14014;DHT22;49110;52.584;13.408;2023-10-09T05:46:07;12.30;99.90
14014;DHT22;49110;52.584;13.408;2023-10-09T05:47:08;12.30;99.90
14014;DHT22;49110;52.584;13.408;2023-10-09T05:48:27;12.30;99.90
14014;DHT22;49110;52.584;13.408;2023-10-09T05:49:39;12.20;99.90
14014;DHT22;49110;52.584;13.408;2023-10-09T05:50:46;12.20;99.90
14014;DHT22;49110;52.584;13.408;2023-10-09T05:52:05;12.30;99.90
14014;DHT22;49110;52.584;13.408;2023-10-09T05:53:26;12.30;99.90
14014;DHT22;49110;52.584;13.408;2023-10-09T05:54:44;12.30;99.90
14014;DHT22;49110;52.584;13.408;2023-10-09T05:56:14;12.40;99.90
14014;DHT22;49110;52.584;13.408;2023-10-09T05:57:33;12.40;99.90
14014;DHT22;49110;52.584;13.408;2023-10-09T05:59:05;12.40;99.90
14014;DHT22;49110;52.584;13.408;2023-10-09T06:00:31;12.40;99.90
14014;DHT22;49110;52.584;13.408;2023-10-09T06:01:51;12.50;99.90
14014;DHT22;49110;52.584;13.408;2023-10-09T06:03:03;12.50;99.90
14014;DHT22;49110;52.584;13.408;2023-10-09T06:04:19;12.40;99.90
14014;DHT22;49110;52.584;13.408;2023-10-09T06:05:21;12.40;99.90
14014;DHT22;49110;52.584;13.408;2023-10-09T06:06:40;12.30;99.90
14014;DHT22;49110;52.584;13.408;2023-10-09T06:07:44;12.30;99.90
14014;DHT22;49110;52.584;13.408;2023-10-09T06:09:05;12.30;99.90
14014;DHT22;49110;52.584;13.408;2023-10-09T06:10:15;12.20;99.90
14014;DHT22;49110;52.584;13.408;2023-10-09T06:11:37;12.20;99.90
14014;DHT22;49110;52.584;13.408;2023-10-09T06:12:38;12.30;99.90
14014;DHT22;49110;52.584;13.408;2023-10-09T06:13:41;12.30;99.90
14014;DHT22;49110;52.584;13.408;2023-10-09T06:14:46;12.30;99.90
14014;DHT22;49110;52.584;13.408;2023-10-09T06:15:50;12.40;99.90
14014;DHT22;49110;52.584;13.408;2023-10-09T06:16:51;12.40;99.90
14014;DHT22;49110;52.584;13.408;2023-10-09T06:17:58;12.40;99.90
14014;DHT22;49110;52.584;13.408;2023-10-09T06:19:18;12.40;99.90
14014;DHT22;49110;52.584;13.408;2023-10-09T06:20:32;12.30;99.90
14014;DHT22;49110;52.584;13.408;2023-10-09T06:22:08;12.30;99.90
14014;DHT22;49110;52.584;13.408;2023-10-09T06:23:27;12.40;99.90
14014;DHT22;49110;52.584;13.408;2023-10-09T06:24:48;12.40;99.90
14014;DHT22;49110;52.584;13.408;2023-10-09T06:25:54;12.40;99.90
14014;DHT22;49110;52.584;13.408;2023-10-09T06:27:05;12.40;99.90
14014;DHT22;49110;52.584;13.408;2023-10-09T06:28:06;12.40;99.90
14014;DHT22;49110;52.584;13.408;2023-10-09T06:29:07;12.40;99.90
14014;DHT22;49110;52.584;13.408;2023-10-09T06:30:31;12.50;99.90
14014;DHT22;49110;52.584;13.408;2023-10-09T06:31:35;12.60;99.90
14014;DHT22;49110;52.584;13.408;2023-10-09T06:32:55;12.60;99.90
14014;DHT22;49110;52.584;13.408;2023-10-09T06:33:58;12.60;99.90
14014;DHT22;49110;52.584;13.408;2023-10-09T06:35:15;12.60;99.90
14014;DHT22;49110;52.584;13.408;2023-10-09T06:36:16;12.60;99.90
14014;DHT22;49110;52.584;13.408;2023-10-09T06:37:19;12.60;99.90
14014;DHT22;49110;52.584;13.408;2023-10-09T06:38:25;12.70;99.90
14014;DHT22;49110;52.584;13.408;2023-10-09T06:39:37;12.60;99.90
14014;DHT22;49110;52.584;13.408;2023-10-09T06:40:55;12.60;99.90
14014;DHT22;49110;52.584;13.408;2023-10-09T06:42:04;12.50;99.90
14014;DHT22;49110;52.584;13.408;2023-10-09T06:43:31;12.50;99.90
14014;DHT22;49110;52.584;13.408;2023-10-09T06:44:32;12.60;99.90
14014;DHT22;49110;52.584;13.408;2023-10-09T06:45:52;12.60;99.90
14014;DHT22;49110;52.584;13.408;2023-10-09T06:46:58;12.60;99.90
14014;DHT22;49110;52.584;13.408;2023-10-09T06:48:08;12.60;99.90
14014;DHT22;49110;52.584;13.408;2023-10-09T06:49:28;12.60;99.90
14014;DHT22;49110;52.584;13.408;2023-10-09T06:50:36;12.60;99.90
14014;DHT22;49110;52.584;13.408;2023-10-09T06:51:56;12.60;99.90
14014;DHT22;49110;52.584;13.408;2023-10-09T06:52:59;12.70;99.90
14014;DHT22;49110;52.584;13.408;2023-10-09T06:54:19;12.70;99.90